createdAt,value
2018-09-26T00:02:04.139Z,9.95
2018-09-26T00:04:30.475Z,9.96
2018-09-26T00:06:56.814Z,9.74
2018-09-26T00:09:23.160Z,9.75
2018-09-26T00:11:49.508Z,9.80
2018-09-26T00:14:15.845Z,9.64
2018-09-26T00:16:42.223Z,9.40
2018-09-26T00:19:08.564Z,9.38
2018-09-26T00:21:34.883Z,9.28
2018-09-26T00:24:01.264Z,9.25
2018-09-26T00:26:27.568Z,9.06
2018-09-26T00:28:53.906Z,9.08
2018-09-26T00:31:20.220Z,9.15
2018-09-26T00:33:46.535Z,9.04
2018-09-26T00:36:12.980Z,8.97
2018-09-26T00:38:39.192Z,9.06
2018-09-26T00:41:05.531Z,9.17
2018-09-26T00:43:31.866Z,9.13
2018-09-26T00:45:58.205Z,9.04
2018-09-26T00:48:24.520Z,9.21
2018-09-26T00:50:50.836Z,8.88
2018-09-26T00:53:17.156Z,8.60
2018-09-26T00:55:43.492Z,8.60
2018-09-26T00:58:09.826Z,8.48
2018-09-26T01:00:36.135Z,8.26
2018-09-26T01:03:02.479Z,8.51
2018-09-26T01:05:28.814Z,8.66
2018-09-26T01:07:55.239Z,8.69
2018-09-26T01:10:21.589Z,8.58
2018-09-26T01:12:47.929Z,8.86
2018-09-26T01:15:14.294Z,8.93
2018-09-26T01:17:40.605Z,8.80
2018-09-26T01:20:06.918Z,8.78
2018-09-26T01:22:33.254Z,8.33
2018-09-26T01:24:59.570Z,8.04
2018-09-26T01:27:25.921Z,7.68
2018-09-26T01:29:52.303Z,7.63
2018-09-26T01:32:18.612Z,7.41
2018-09-26T01:34:44.951Z,7.00
2018-09-26T01:37:11.264Z,7.04
2018-09-26T01:39:37.609Z,7.05
2018-09-26T01:42:03.925Z,7.17
2018-09-26T01:44:30.241Z,6.84
2018-09-26T01:46:56.583Z,6.60
2018-09-26T01:49:22.920Z,6.48
2018-09-26T01:51:49.259Z,6.40
2018-09-26T01:54:15.598Z,6.55
2018-09-26T01:56:41.913Z,6.43
2018-09-26T01:59:08.236Z,6.89
2018-09-26T02:01:34.566Z,6.79
2018-09-26T02:04:00.882Z,6.62
2018-09-26T02:06:27.215Z,6.76
2018-09-26T02:08:53.592Z,6.71
2018-09-26T02:11:19.908Z,6.79
2018-09-26T02:13:46.255Z,6.73
2018-09-26T02:16:12.596Z,6.93
2018-09-26T02:18:38.907Z,6.95
2018-09-26T02:21:05.242Z,6.84
2018-09-26T02:23:31.586Z,6.88
2018-09-26T02:25:57.903Z,6.81
2018-09-26T02:28:24.279Z,6.96
2018-09-26T02:30:50.674Z,6.89
2018-09-26T02:33:17.002Z,6.83
2018-09-26T02:35:43.318Z,7.00
2018-09-26T02:38:09.658Z,6.94
2018-09-26T02:40:36.020Z,6.96
2018-09-26T02:43:02.367Z,7.17
2018-09-26T02:45:28.686Z,7.32
2018-09-26T02:47:54.997Z,7.31
2018-09-26T02:50:21.335Z,7.40
2018-09-26T02:52:47.644Z,7.41
2018-09-26T02:55:13.983Z,7.27
2018-09-26T02:57:40.297Z,7.21
2018-09-26T03:00:06.611Z,7.25
2018-09-26T03:02:32.927Z,7.20
2018-09-26T03:04:59.247Z,7.53
2018-09-26T03:07:25.562Z,7.78
2018-09-26T03:09:51.883Z,7.88
2018-09-26T03:12:18.221Z,7.98
2018-09-26T03:14:44.539Z,7.95
2018-09-26T03:17:10.875Z,7.72
2018-09-26T03:19:37.214Z,7.79
2018-09-26T03:22:03.524Z,7.65
2018-09-26T03:24:29.863Z,7.56
2018-09-26T03:26:56.177Z,7.73
2018-09-26T03:29:22.499Z,7.83
2018-09-26T03:31:48.818Z,8.03
2018-09-26T03:34:15.188Z,8.20
2018-09-26T03:36:41.533Z,8.07
2018-09-26T03:39:07.845Z,8.25
2018-09-26T03:41:34.198Z,8.54
2018-09-26T03:44:00.531Z,8.78
2018-09-26T03:46:26.924Z,8.85
2018-09-26T03:48:53.237Z,8.86
2018-09-26T03:51:19.578Z,8.36
2018-09-26T03:53:45.896Z,8.07
2018-09-26T03:56:12.235Z,7.68
2018-09-26T03:58:38.575Z,7.26
2018-09-26T04:01:04.916Z,6.81
2018-09-26T04:03:31.233Z,6.57
2018-09-26T04:05:57.547Z,6.13
2018-09-26T04:08:23.888Z,5.88
2018-09-26T04:10:50.203Z,5.77
2018-09-26T04:13:16.537Z,5.61
2018-09-26T04:15:42.903Z,5.65
2018-09-26T04:18:09.167Z,5.58
2018-09-26T04:20:35.474Z,5.60
2018-09-26T04:23:01.814Z,5.57
2018-09-26T04:25:28.162Z,5.41
2018-09-26T04:27:54.491Z,5.38
2018-09-26T04:30:20.887Z,5.43
2018-09-26T04:32:47.286Z,5.49
2018-09-26T04:35:13.512Z,5.65
2018-09-26T04:37:39.827Z,5.76
2018-09-26T04:40:06.174Z,5.93
2018-09-26T04:42:32.479Z,6.09
2018-09-26T04:44:58.800Z,6.30
2018-09-26T04:47:25.117Z,6.50
2018-09-26T04:49:51.478Z,6.61
2018-09-26T04:52:17.816Z,6.80
2018-09-26T04:54:44.166Z,7.25
2018-09-26T04:57:10.503Z,7.60
2018-09-26T04:59:36.843Z,8.50
2018-09-26T05:02:03.159Z,8.27
2018-09-26T05:04:29.499Z,8.19
2018-09-26T05:06:55.860Z,8.16
2018-09-26T05:09:22.266Z,8.12
2018-09-26T05:11:48.602Z,8.34
2018-09-26T05:14:14.940Z,8.29
2018-09-26T05:16:41.254Z,8.27
2018-09-26T05:19:07.569Z,8.45
2018-09-26T05:21:33.882Z,8.65
2018-09-26T05:24:00.241Z,9.06
2018-09-26T05:26:26.538Z,9.54
2018-09-26T05:28:52.885Z,9.74
2018-09-26T05:31:19.193Z,9.88
2018-09-26T05:33:45.540Z,10.00
2018-09-26T05:36:11.855Z,10.20
2018-09-26T05:38:38.200Z,9.86
2018-09-26T05:41:04.540Z,9.81
2018-09-26T05:43:30.865Z,10.14
2018-09-26T05:45:57.173Z,10.20
2018-09-26T05:48:23.495Z,10.35
2018-09-26T05:50:49.819Z,10.44
2018-09-26T05:53:16.189Z,10.34
2018-09-26T05:55:42.536Z,10.36
2018-09-26T05:58:08.853Z,10.68
2018-09-26T06:00:35.191Z,10.63
2018-09-26T06:03:01.534Z,10.74
2018-09-26T06:05:27.916Z,11.00
2018-09-26T06:07:54.171Z,10.65
2018-09-26T06:10:20.508Z,10.52
2018-09-26T06:12:46.847Z,10.91
2018-09-26T06:15:13.171Z,10.91
2018-09-26T06:17:39.560Z,11.04
2018-09-26T06:20:05.899Z,11.52
2018-09-26T06:22:32.219Z,11.60
2018-09-26T06:24:58.564Z,12.13
2018-09-26T06:27:24.949Z,12.51
2018-09-26T06:29:51.270Z,12.58
2018-09-26T06:32:17.587Z,12.27
2018-09-26T06:34:43.903Z,12.53
2018-09-26T06:37:10.224Z,12.76
2018-09-26T06:39:36.541Z,12.70
2018-09-26T06:42:02.857Z,12.70
2018-09-26T06:44:29.190Z,12.50
2018-09-26T06:46:55.535Z,12.76
2018-09-26T06:49:21.871Z,12.77
2018-09-26T06:51:48.188Z,13.29
2018-09-26T06:54:14.548Z,13.42
2018-09-26T06:56:40.894Z,13.64
2018-09-26T06:59:07.241Z,13.64
2018-09-26T07:01:33.581Z,13.32
2018-09-26T07:03:59.933Z,13.47
2018-09-26T07:06:26.273Z,13.41
2018-09-26T07:08:52.585Z,13.26
2018-09-26T07:11:18.940Z,13.62
2018-09-26T07:13:45.276Z,13.73
2018-09-26T07:16:11.620Z,13.59
2018-09-26T07:18:37.959Z,13.79
2018-09-26T07:21:04.300Z,13.53
2018-09-26T07:23:30.662Z,13.89
2018-09-26T07:25:57.035Z,13.79
2018-09-26T07:28:23.396Z,14.16
2018-09-26T07:30:49.714Z,14.33
2018-09-26T07:33:16.116Z,14.02
2018-09-26T07:35:42.394Z,14.17
2018-09-26T07:38:08.733Z,14.61
2018-09-26T07:40:35.046Z,14.62
2018-09-26T07:43:01.390Z,14.47
2018-09-26T07:45:27.760Z,14.35
2018-09-26T07:47:54.018Z,14.74
2018-09-26T07:50:20.371Z,14.91
2018-09-26T07:52:46.686Z,14.81
2018-09-26T07:55:13.029Z,14.27
2018-09-26T07:57:39.349Z,13.97
2018-09-26T08:00:05.774Z,14.37
2018-09-26T08:02:32.013Z,14.71
2018-09-26T08:04:58.369Z,14.53
2018-09-26T08:07:24.703Z,14.45
2018-09-26T08:09:51.025Z,14.90
2018-09-26T08:12:17.371Z,14.86
2018-09-26T08:14:43.690Z,14.85
2018-09-26T08:17:10.038Z,14.58
2018-09-26T08:19:36.375Z,14.85
2018-09-26T08:22:02.701Z,14.70
2018-09-26T08:24:29.018Z,14.82
2018-09-26T08:26:55.360Z,14.84
2018-09-26T08:29:21.693Z,15.31
2018-09-26T08:31:48.045Z,16.00
2018-09-26T08:34:14.388Z,16.03
2018-09-26T08:36:40.733Z,14.95
2018-09-26T08:39:07.084Z,15.36
2018-09-26T08:41:33.428Z,15.56
2018-09-26T08:43:59.829Z,15.54
2018-09-26T08:46:26.088Z,15.79
2018-09-26T08:48:52.401Z,15.84
2018-09-26T08:51:18.722Z,15.71
2018-09-26T08:53:45.059Z,17.11
2018-09-26T08:56:11.384Z,17.93
2018-09-26T08:58:37.709Z,18.70
2018-09-26T09:01:04.022Z,18.54
2018-09-26T09:03:30.346Z,18.01
2018-09-26T09:05:56.685Z,18.47
2018-09-26T09:08:23.010Z,17.48
2018-09-26T09:10:49.350Z,16.25
2018-09-26T09:13:15.737Z,14.96
2018-09-26T09:15:42.075Z,14.58
2018-09-26T09:18:08.462Z,14.30
2018-09-26T09:20:34.863Z,14.40
2018-09-26T09:23:01.205Z,15.31
2018-09-26T09:25:27.560Z,16.52
2018-09-26T09:27:53.886Z,16.44
2018-09-26T09:30:20.235Z,15.85
2018-09-26T09:32:46.567Z,15.86
2018-09-26T09:35:12.967Z,15.55
2018-09-26T09:37:39.285Z,15.26
2018-09-26T09:40:05.631Z,15.98
2018-09-26T09:42:32.077Z,15.93
2018-09-26T09:44:58.420Z,15.65
2018-09-26T09:47:24.737Z,16.30
2018-09-26T09:49:51.054Z,15.26
2018-09-26T09:52:17.369Z,15.14
2018-09-26T09:54:43.685Z,15.14
2018-09-26T09:57:10.008Z,15.15
2018-09-26T09:59:36.369Z,15.45
2018-09-26T10:02:02.716Z,16.70
2018-09-26T10:04:29.035Z,17.23
2018-09-26T10:06:55.356Z,17.14
2018-09-26T10:09:21.675Z,17.24
2018-09-26T10:11:48.027Z,17.82
2018-09-26T10:14:14.388Z,17.42
2018-09-26T10:16:40.685Z,17.45
2018-09-26T10:19:07.023Z,18.07
2018-09-26T10:21:33.394Z,18.68
2018-09-26T10:23:59.728Z,17.43
2018-09-26T10:26:26.140Z,16.38
2018-09-26T10:28:52.398Z,16.16
2018-09-26T10:31:18.797Z,16.66
2018-09-26T10:33:45.140Z,16.43
2018-09-26T10:36:11.483Z,16.10
2018-09-26T10:38:37.887Z,16.82
2018-09-26T10:41:04.328Z,16.97
2018-09-26T10:43:30.676Z,17.37
2018-09-26T10:45:57.032Z,18.01
2018-09-26T10:48:23.371Z,17.48
2018-09-26T10:50:49.695Z,16.32
2018-09-26T10:53:16.006Z,16.62
2018-09-26T10:55:42.362Z,16.38
2018-09-26T10:58:08.746Z,17.54
2018-09-26T11:00:35.076Z,18.27
2018-09-26T11:03:01.401Z,18.69
2018-09-26T11:05:27.721Z,18.33
2018-09-26T11:07:54.038Z,16.66
2018-09-26T11:10:20.414Z,15.68
2018-09-26T11:12:46.783Z,15.28
2018-09-26T11:15:13.072Z,16.41
2018-09-26T11:17:39.387Z,17.58
2018-09-26T11:20:05.815Z,17.52
2018-09-26T11:22:32.090Z,17.58
2018-09-26T11:24:58.436Z,17.79
2018-09-26T11:27:24.820Z,17.94
2018-09-26T11:29:51.147Z,18.47
2018-09-26T11:32:17.545Z,17.97
2018-09-26T11:34:43.832Z,17.86
2018-09-26T11:37:10.148Z,18.23
2018-09-26T11:39:36.461Z,17.22
2018-09-26T11:42:02.807Z,16.25
2018-09-26T11:44:29.123Z,16.50
2018-09-26T11:46:55.466Z,17.14
2018-09-26T11:49:21.790Z,16.72
2018-09-26T11:51:48.144Z,16.89
2018-09-26T11:54:14.493Z,17.24
2018-09-26T11:56:40.865Z,17.73
2018-09-26T11:59:07.208Z,17.63
2018-09-26T12:01:33.549Z,17.90
2018-09-26T12:03:59.937Z,17.38
2018-09-26T12:06:26.278Z,16.41
2018-09-26T12:08:52.619Z,17.15
2018-09-26T12:11:18.942Z,17.47
2018-09-26T12:13:45.264Z,17.95
2018-09-26T12:16:11.646Z,18.25
2018-09-26T12:18:37.943Z,18.41
2018-09-26T12:21:04.284Z,17.94
2018-09-26T12:23:30.617Z,17.07
2018-09-26T12:25:57.000Z,16.18
2018-09-26T12:28:23.389Z,15.63
2018-09-26T12:30:49.670Z,15.94
2018-09-26T12:33:16.002Z,16.54
2018-09-26T12:35:42.397Z,16.46
2018-09-26T12:38:08.730Z,15.36
2018-09-26T12:40:35.074Z,14.91
2018-09-26T12:43:01.416Z,14.91
2018-09-26T12:45:27.757Z,14.60
2018-09-26T12:47:54.133Z,14.59
2018-09-26T12:50:20.482Z,14.23
2018-09-26T12:52:46.819Z,14.81
2018-09-26T12:55:13.157Z,15.14
2018-09-26T12:57:39.508Z,15.52
2018-09-26T13:00:05.843Z,15.53
2018-09-26T13:02:32.244Z,15.38
2018-09-26T13:04:58.590Z,15.35
2018-09-26T13:07:24.934Z,14.90
2018-09-26T13:09:51.286Z,15.11
2018-09-26T13:12:17.688Z,14.98
2018-09-26T13:14:44.046Z,14.96
2018-09-26T13:17:10.395Z,14.83
2018-09-26T13:19:36.779Z,14.69
2018-09-26T13:22:03.114Z,14.81
2018-09-26T13:24:29.460Z,14.92
2018-09-26T13:26:55.789Z,15.12
2018-09-26T13:29:22.129Z,15.12
2018-09-26T13:31:48.475Z,15.13
2018-09-26T13:34:14.856Z,15.08
2018-09-26T13:36:41.159Z,14.49
2018-09-26T13:39:07.598Z,14.32
2018-09-26T13:41:33.852Z,14.19
2018-09-26T13:44:00.197Z,13.97
2018-09-26T13:46:26.631Z,13.88
2018-09-26T13:48:52.874Z,13.69
2018-09-26T13:51:19.225Z,13.40
2018-09-26T13:53:45.580Z,13.44
2018-09-26T13:56:11.980Z,13.39
2018-09-26T13:58:38.263Z,13.54
2018-09-26T14:01:04.607Z,13.62
2018-09-26T14:03:30.947Z,13.65
2018-09-26T14:05:57.285Z,13.62
2018-09-26T14:08:23.651Z,13.41
2018-09-26T14:10:49.964Z,13.46
2018-09-26T14:13:16.302Z,13.54
2018-09-26T14:15:42.669Z,13.53
2018-09-26T14:18:09.048Z,13.47
2018-09-26T14:20:35.378Z,13.29
2018-09-26T14:23:01.757Z,13.31
2018-09-26T14:25:28.105Z,13.27
2018-09-26T14:27:54.438Z,13.12
2018-09-26T14:30:20.847Z,13.01
2018-09-26T14:32:47.103Z,12.99
2018-09-26T14:35:15.153Z,12.85
2018-09-26T14:37:39.806Z,12.94
2018-09-26T14:40:06.151Z,12.91
2018-09-26T14:42:32.466Z,12.84
2018-09-26T14:44:58.809Z,12.83
2018-09-26T14:47:25.245Z,12.86
2018-09-26T14:49:51.475Z,12.89
2018-09-26T14:52:17.850Z,12.87
2018-09-26T14:54:44.146Z,12.75
2018-09-26T14:57:10.525Z,12.72
2018-09-26T14:59:36.784Z,12.58
2018-09-26T15:02:03.134Z,12.54
2018-09-26T15:04:29.498Z,12.60
2018-09-26T15:06:55.775Z,12.60
2018-09-26T15:09:22.124Z,12.56
2018-09-26T15:11:48.482Z,12.46
2018-09-26T15:14:14.821Z,12.39
2018-09-26T15:16:41.148Z,12.30
2018-09-26T15:19:07.466Z,12.22
2018-09-26T15:21:33.783Z,12.17
2018-09-26T15:24:00.103Z,12.20
2018-09-26T15:26:26.510Z,12.22
2018-09-26T15:28:52.763Z,12.18
2018-09-26T15:31:19.096Z,12.20
2018-09-26T15:33:45.419Z,12.24
2018-09-26T15:36:11.774Z,12.29
2018-09-26T15:38:38.074Z,12.30
2018-09-26T15:41:04.430Z,12.12
2018-09-26T15:43:30.750Z,12.10
2018-09-26T15:45:57.129Z,12.11
2018-09-26T15:48:23.488Z,12.03
2018-09-26T15:50:49.798Z,11.97
2018-09-26T15:53:16.136Z,12.05
2018-09-26T15:55:42.477Z,12.09
2018-09-26T15:58:08.839Z,12.05
2018-09-26T16:00:35.129Z,11.94
2018-09-26T16:03:01.566Z,11.94
2018-09-26T16:05:27.869Z,11.92
2018-09-26T16:07:54.252Z,11.77
2018-09-26T16:10:20.657Z,11.67
2018-09-26T16:12:46.948Z,11.65
2018-09-26T16:15:13.293Z,11.56
2018-09-26T16:17:40.735Z,11.56
2018-09-26T16:20:07.083Z,11.58
2018-09-26T16:22:33.400Z,11.45
2018-09-26T16:24:59.714Z,11.42
2018-09-26T16:27:26.040Z,11.41
2018-09-26T16:29:52.379Z,11.41
2018-09-26T16:32:18.795Z,11.39
2018-09-26T16:34:45.038Z,11.31
2018-09-26T16:37:11.377Z,11.34
2018-09-26T16:39:37.766Z,11.31
2018-09-26T16:42:04.048Z,11.31
2018-09-26T16:44:30.392Z,11.34
2018-09-26T16:46:56.713Z,11.26
2018-09-26T16:49:23.025Z,11.17
2018-09-26T16:51:52.185Z,11.07
2018-09-26T16:54:18.580Z,11.00
2018-09-26T16:56:45.118Z,10.93
2018-09-26T16:59:11.351Z,10.96
2018-09-26T17:01:37.674Z,10.94
2018-09-26T17:04:04.083Z,10.88
2018-09-26T17:06:30.347Z,10.88
2018-09-26T17:08:56.691Z,10.88
2018-09-26T17:11:23.061Z,10.90
2018-09-26T17:13:49.444Z,10.85
2018-09-26T17:16:15.819Z,10.82
2018-09-26T17:18:42.122Z,10.80
2018-09-26T17:21:08.453Z,10.71
2018-09-26T17:23:34.766Z,10.55
2018-09-26T17:26:01.111Z,10.45
2018-09-26T17:28:27.550Z,10.34
2018-09-26T17:30:53.811Z,10.26
2018-09-26T17:33:20.141Z,10.19
2018-09-26T17:35:46.466Z,10.13
2018-09-26T17:38:12.792Z,10.01
2018-09-26T17:40:39.132Z,10.00
2018-09-26T17:43:05.553Z,10.06
2018-09-26T17:45:31.889Z,9.96
2018-09-26T17:47:58.226Z,9.96
2018-09-26T17:50:24.625Z,9.88
2018-09-26T17:52:50.925Z,9.75
2018-09-26T17:55:17.265Z,9.62
2018-09-26T17:57:43.583Z,9.61
2018-09-26T18:00:12.543Z,9.60
2018-09-26T18:02:38.841Z,9.60
2018-09-26T18:05:05.179Z,9.60
2018-09-26T18:07:31.524Z,9.64
2018-09-26T18:09:57.928Z,9.58
2018-09-26T18:12:30.478Z,9.53
2018-09-26T18:14:56.805Z,9.45
2018-09-26T18:17:23.156Z,9.41
2018-09-26T18:19:49.598Z,9.33
2018-09-26T18:22:15.925Z,9.29
2018-09-26T18:24:42.247Z,9.28
2018-09-26T18:27:08.619Z,9.23
2018-09-26T18:29:34.944Z,9.14
2018-09-26T18:32:01.286Z,9.05
2018-09-26T18:34:27.635Z,9.04
2018-09-26T18:36:53.964Z,9.03
2018-09-26T18:39:20.337Z,9.02
2018-09-26T18:41:46.593Z,8.93
2018-09-26T18:44:12.905Z,8.89
2018-09-26T18:46:39.257Z,8.90
2018-09-26T18:49:05.582Z,8.95
2018-09-26T18:51:31.901Z,8.88
2018-09-26T18:53:58.214Z,8.85
2018-09-26T18:56:24.556Z,8.90
2018-09-26T18:58:51.028Z,8.78
2018-09-26T19:01:18.217Z,8.56
2018-09-26T19:06:30.008Z,8.66
2018-09-26T19:08:56.403Z,8.74
2018-09-26T19:11:22.694Z,8.70
2018-09-26T19:13:49.031Z,8.73
2018-09-26T19:16:15.372Z,8.61
2018-09-26T19:18:41.725Z,8.51
2018-09-26T19:21:08.052Z,8.38
2018-09-26T19:23:34.395Z,8.34
2018-09-26T19:26:00.730Z,8.38
2018-09-26T19:28:27.116Z,8.41
2018-09-26T19:30:53.457Z,8.31
2018-09-26T19:33:19.774Z,8.27
2018-09-26T19:35:46.098Z,8.10
2018-09-26T19:38:12.416Z,8.10
2018-09-26T19:40:38.743Z,8.15
2018-09-26T19:43:05.065Z,8.07
2018-09-26T19:45:31.385Z,8.13
2018-09-26T19:47:57.741Z,8.16
2018-09-26T19:50:24.076Z,8.20
2018-09-26T19:52:50.424Z,8.04
2018-09-26T19:55:16.751Z,7.94
2018-09-26T19:57:43.074Z,7.89
2018-09-26T20:00:12.014Z,7.83
2018-09-26T20:02:38.303Z,7.74
2018-09-26T20:05:04.654Z,7.77
2018-09-26T20:07:30.972Z,7.79
2018-09-26T20:09:57.287Z,7.77
2018-09-26T20:12:23.636Z,7.78
2018-09-26T20:14:50.023Z,7.70
2018-09-26T20:17:16.341Z,7.64
2018-09-26T20:19:42.755Z,7.77
2018-09-26T20:22:09.194Z,8.10
2018-09-26T20:24:35.427Z,8.03
2018-09-26T20:27:02.008Z,7.99
2018-09-26T20:29:28.408Z,7.94
2018-09-26T20:31:54.610Z,7.78
2018-09-26T20:34:20.941Z,7.65
2018-09-26T20:36:47.264Z,7.59
2018-09-26T20:39:13.597Z,7.82
2018-09-26T20:41:39.935Z,8.09
2018-09-26T20:44:06.273Z,8.02
2018-09-26T20:46:32.618Z,7.92
2018-09-26T20:48:58.967Z,7.81
2018-09-26T20:51:25.300Z,7.70
2018-09-26T20:53:51.634Z,7.58
2018-09-26T20:56:17.974Z,7.51
2018-09-26T20:58:44.310Z,7.53
2018-09-26T21:01:10.644Z,7.70
2018-09-26T21:03:36.971Z,7.65
2018-09-26T21:06:03.324Z,7.75
2018-09-26T21:08:29.655Z,7.90
2018-09-26T21:10:56.001Z,7.75
2018-09-26T21:13:22.334Z,7.72
2018-09-26T21:15:48.668Z,7.58
2018-09-26T21:18:14.998Z,7.39
2018-09-26T21:20:41.341Z,7.36
2018-09-26T21:23:07.701Z,7.35
2018-09-26T21:25:34.004Z,7.53
2018-09-26T21:28:00.343Z,7.46
2018-09-26T21:30:26.684Z,7.37
2018-09-26T21:32:53.066Z,7.31
2018-09-26T21:35:19.385Z,7.23
2018-09-26T21:37:45.732Z,7.32
2018-09-26T21:40:12.048Z,7.22
2018-09-26T21:42:38.367Z,7.00
2018-09-26T21:45:04.706Z,6.89
2018-09-26T21:47:31.049Z,7.09
2018-09-26T21:49:57.398Z,7.05
2018-09-26T21:52:23.737Z,7.09
2018-09-26T21:54:50.080Z,7.10
2018-09-26T21:57:16.416Z,7.10
2018-09-26T21:59:42.729Z,7.04
2018-09-26T22:02:09.044Z,6.75
2018-09-26T22:04:35.383Z,6.65
2018-09-26T22:07:01.745Z,6.57
2018-09-26T22:09:28.039Z,6.54
2018-09-26T22:11:54.358Z,6.77
2018-09-26T22:14:20.672Z,6.86
2018-09-26T22:16:47.002Z,6.79
2018-09-26T22:19:13.316Z,6.84
2018-09-26T22:21:39.634Z,6.84
2018-09-26T22:24:05.970Z,6.87
2018-09-26T22:26:32.337Z,6.53
2018-09-26T22:28:58.679Z,6.33
2018-09-26T22:31:24.993Z,6.28
2018-09-26T22:33:51.329Z,6.14
2018-09-26T22:36:17.645Z,6.12
2018-09-26T22:38:43.986Z,6.17
2018-09-26T22:41:10.333Z,6.10
2018-09-26T22:43:36.672Z,6.05
2018-09-26T22:46:03.008Z,6.16
2018-09-26T22:48:29.326Z,6.06
2018-09-26T22:50:55.678Z,5.97
2018-09-26T22:53:21.992Z,5.77
2018-09-26T22:55:48.320Z,5.77
2018-09-26T22:58:14.705Z,5.85
2018-09-26T23:00:40.980Z,5.82
2018-09-26T23:03:07.325Z,5.79
2018-09-26T23:05:33.641Z,5.71
2018-09-26T23:07:59.981Z,5.65
2018-09-26T23:10:26.325Z,5.77
2018-09-26T23:12:52.648Z,5.81
2018-09-26T23:15:19.041Z,5.86
2018-09-26T23:17:45.319Z,5.88
2018-09-26T23:20:11.661Z,6.03
2018-09-26T23:22:38.000Z,5.93
2018-09-26T23:25:04.334Z,5.76
2018-09-26T23:27:30.649Z,5.73
2018-09-26T23:29:56.996Z,5.62
2018-09-26T23:32:23.337Z,5.66
2018-09-26T23:34:49.647Z,5.80
2018-09-26T23:37:15.961Z,5.79
2018-09-26T23:39:42.303Z,6.06
2018-09-26T23:42:08.620Z,6.18
2018-09-26T23:44:34.929Z,6.34
2018-09-26T23:47:01.240Z,6.37
2018-09-26T23:49:27.574Z,6.31
2018-09-26T23:51:53.894Z,6.13
2018-09-26T23:54:20.208Z,5.88
2018-09-26T23:56:46.525Z,5.88
2018-09-26T23:59:12.880Z,5.92
